Pride Of Canterbury — MPQZ6 — position and weather

sailwx.info

Track history (hours):
 
Tides and Currents Weather Stations Pressure Air Temp Water Temp Dewpoint Dewpoint Depression Visibility Wind Speed Wind Dir Waves Ship Positions

Pride Of Canterbury

Operator: P & O Ferries

Last reported at 2018-Jul-22 03:00 UTC. Time now 2018-Jul-22 03:22 UTC.
Position N 50°60' E 001°36'.

Length 180 m; draft 5.7 m.

Type: Passenger vessel. MMSI: 232001060.

Date/timePositionNaut miles runAvg speedWind from/ knotsBaromVisibWave heightAir tempDewpointWater temp
2018-Jul-22 03:00N 50°60' E 001°36'918.9
2018-Jul-22 02:30N 51°06' E 001°24'3 2.4
2018-Jul-22 01:15N 51°07' E 001°20'1 4.9
2018-Jul-22 01:00N 51°07' E 001°22'917.8
2018-Jul-22 00:30N 51°03' E 001°34'919.0
2018-Jul-22 00:01N 50°58' E 001°47'2 4.7
2018-Jul-21 23:29N 50°58' E 001°51'0 0.0
2018-Jul-21 23:01N 50°58' E 001°51'5 9.4
2018-Jul-21 22:31N 50°58' E 001°44'918.1
2018-Jul-21 22:00N 51°03' E 001°31'8 7.4
2018-Jul-21 20:52N 51°07' E 001°20'411.8
2018-Jul-21 20:30N 51°06' E 001°27'918.3
2018-Jul-21 20:00N 51°02' E 001°39'815.9
2018-Jul-21 19:30N 50°58' E 001°51'1 1.1
2018-Jul-21 18:58N 50°58' E 001°52'0 0.0
2018-Jul-21 18:30N 50°58' E 001°52'612.0
2018-Jul-21 18:00N 50°59' E 001°42'918.8
2018-Jul-21 17:30N 51°03' E 001°30'7 9.0
2018-Jul-21 16:43N 51°07' E 001°20'0 0.0
2018-Jul-21 16:16N 51°07' E 001°20'1 4.0
2018-Jul-21 16:00N 51°07' E 001°22'815.6
2018-Jul-21 15:31N 51°04' E 001°33'918.9
2018-Jul-21 15:00N 50°58' E 001°45'4 7.5
2018-Jul-21 14:30N 50°58' E 001°51'1 1.1
2018-Jul-21 13:30N 50°58' E 001°49'816.7
2018-Jul-21 13:00N 50°60' E 001°36'918.2
2018-Jul-21 12:30N 51°05' E 001°25'4 5.5
2018-Jul-21 11:49N 51°07' E 001°20'0 0.0
2018-Jul-21 11:27N 51°07' E 001°20'3 5.8
2018-Jul-21 11:01N 51°07' E 001°24'918.9
2018-Jul-21 10:31N 51°02' E 001°37'917.6
2018-Jul-21 10:01N 50°58' E 001°50'1 1.7
2018-Jul-21 09:30N 50°58' E 001°51'0 0.0
2018-Jul-21 09:01N 50°58' E 001°51'510.6
2018-Jul-21 08:31N 50°58' E 001°43'917.8
2018-Jul-21 08:00N 51°04' E 001°33'916.5
2018-Jul-21 07:29N 51°07' E 001°20'0 0.0
2018-Jul-21 06:46N 51°07' E 001°20'0 0.1
2018-Jul-21 06:24N 51°07' E 001°20'1315.0
2018-Jul-21 05:30N 51°01' E 001°39'815.8
2018-Jul-21 05:00N 50°58' E 001°51'0 0.6
2018-Jul-21 04:30N 50°58' E 001°51'0 0.3
2018-Jul-21 03:59N 50°58' E 001°51'612.3
2018-Jul-21 03:30N 50°58' E 001°41'1019.1
2018-Jul-21 03:00N 51°04' E 001°29'713.2
2018-Jul-21 02:30N 51°07' E 001°20'0 0.0
2018-Jul-21 01:36N 51°07' E 001°20'0 0.0
2018-Jul-21 01:26N 51°07' E 001°20'1 1.3
2018-Jul-21 01:00N 51°07' E 001°21'918.7
2018-Jul-21 00:31N 51°02' E 001°34'1019.3
2018-Jul-21 00:00N 50°58' E 001°47'2 4.6
2018-Jul-20 23:30N 50°58' E 001°51'0 0.0
2018-Jul-20 23:00N 50°58' E 001°51'1 1.4
2018-Jul-20 22:30N 50°58' E 001°50'917.7
2018-Jul-20 22:00N 50°59' E 001°36'918.9
2018-Jul-20 21:30N 51°05' E 001°25'4 3.1
2018-Jul-20 20:18N 51°07' E 001°20'0 1.0
2018-Jul-20 20:00N 51°07' E 001°21'917.4
2018-Jul-20 19:30N 51°04' E 001°33'918.6
2018-Jul-20 19:00N 50°58' E 001°45'4 7.4
2018-Jul-20 18:29N 50°58' E 001°51'0 0.4
2018-Jul-20 17:56N 50°58' E 001°51'818.3
2018-Jul-20 17:30N 50°58' E 001°38'919.2
2018-Jul-20 17:01N 51°04' E 001°26'5 4.2
2018-Jul-20 15:50N 51°07' E 001°20'411.4
2018-Jul-20 15:30N 51°06' E 001°26'1019.7
2018-Jul-20 15:00N 51°01' E 001°39'815.7
2018-Jul-20 14:31N 50°58' E 001°51'0 0.4
2018-Jul-20 14:00N 50°58' E 001°51'2 5.0
2018-Jul-20 13:30N 50°58' E 001°47'816.5
2018-Jul-20 13:00N 51°00' E 001°34'918.2
2018-Jul-20 12:31N 51°06' E 001°23'3 2.5
2018-Jul-20 11:30N 51°07' E 001°20'3 5.9
2018-Jul-20 11:00N 51°07' E 001°25'917.4
2018-Jul-20 10:31N 51°02' E 001°36'918.1
2018-Jul-20 10:00N 50°58' E 001°49'1 2.1
2018-Jul-20 09:30N 50°58' E 001°51'0 0.0
2018-Jul-20 09:00N 50°58' E 001°51'4 9.2
2018-Jul-20 08:30N 50°58' E 001°44'918.3
2018-Jul-20 08:00N 51°02' E 001°31'916.6
2018-Jul-20 07:29N 51°07' E 001°20'0 0.0
2018-Jul-20 07:00N 51°07' E 001°20'0 0.0
2018-Jul-20 06:29N 51°07' E 001°20'4 8.5
2018-Jul-20 06:00N 51°07' E 001°26'816.9
2018-Jul-20 05:30N 51°03' E 001°38'816.0
2018-Jul-20 05:00N 50°58' E 001°49'1 2.7
2018-Jul-20 04:30N 50°58' E 001°51'0 0.0
2018-Jul-20 04:00N 50°58' E 001°51'0 0.7
2018-Jul-20 03:30N 50°58' E 001°51'917.8
2018-Jul-20 03:01N 50°60' E 001°37'918.8
2018-Jul-20 02:30N 51°05' E 001°25'3 6.1
2018-Jul-20 01:57N 51°07' E 001°20'0 0.1
2018-Jul-20 01:29N 51°07' E 001°20'611.8
2018-Jul-20 01:00N 51°05' E 001°28'1019.3
2018-Jul-20 00:30N 50°60' E 001°41'713.1
2018-Jul-20 00:00N 50°58' E 001°51'0 0.0
2018-Jul-19 23:30N 50°58' E 001°51'0 0.0
2018-Jul-19 23:00N 50°58' E 001°51'613.1
2018-Jul-19 22:30N 50°58' E 001°41'917.6
2018-Jul-19 22:00N 51°03' E 001°29'714.5
2018-Jul-19 21:30N 51°07' E 001°20'0 0.0
2018-Jul-19 20:59N 51°07' E 001°20'0 0.7
2018-Jul-19 20:30N 51°07' E 001°21'917.8
2018-Jul-19 20:00N 51°04' E 001°34'918.8
2018-Jul-19 19:31N 50°58' E 001°45'4 7.1
2018-Jul-19 19:00N 50°58' E 001°51'0 0.0
2018-Jul-19 18:30N 50°58' E 001°51'1 2.2
2018-Jul-19 18:00N 50°58' E 001°49'918.2
2018-Jul-19 17:30N 51°01' E 001°36'918.2
2018-Jul-19 17:00N 51°06' E 001°23'3 5.0
2018-Jul-19 16:30N 51°07' E 001°20'0 0.0
2018-Jul-19 15:56N 51°07' E 001°20'1 3.1
2018-Jul-19 15:30N 51°07' E 001°22'918.6
2018-Jul-19 15:00N 51°03' E 001°35'1110.9
2018-Jul-19 14:00N 50°58' E 001°51'0 0.0
2018-Jul-19 13:30N 50°58' E 001°51'5 9.6
2018-Jul-19 13:01N 50°58' E 001°43'917.8
2018-Jul-19 12:31N 51°02' E 001°31'816.2
2018-Jul-19 12:00N 51°07' E 001°20'0 0.5
2018-Jul-19 11:29N 51°07' E 001°20'0 0.2
2018-Jul-19 11:00N 51°07' E 001°20'714.7
2018-Jul-19 10:31N 51°05' E 001°31'1019.1
2018-Jul-19 10:00N 50°59' E 001°43'510.4
2018-Jul-19 09:30N 50°58' E 001°51'0 0.0
2018-Jul-19 09:00N 50°58' E 001°51'2 4.2
2018-Jul-19 08:30N 50°58' E 001°48'917.3
2018-Jul-19 08:01N 51°01' E 001°35'1019.3
2018-Jul-19 07:30N 51°07' E 001°22'2 3.3
2018-Jul-19 06:59N 51°07' E 001°20'0 0.0
2018-Jul-19 06:30N 51°07' E 001°20'4 8.8
2018-Jul-19 06:00N 51°07' E 001°27'816.9
2018-Jul-19 05:31N 51°02' E 001°38'816.5
2018-Jul-19 05:00N 50°58' E 001°50'1 1.6
2018-Jul-19 04:30N 50°58' E 001°51'0 0.0
2018-Jul-19 04:00N 50°58' E 001°51'4 7.3
2018-Jul-19 03:30N 50°58' E 001°45'1019.9
2018-Jul-19 03:01N 51°01' E 001°30'816.9
2018-Jul-19 02:30N 51°07' E 001°21'1 1.7
2018-Jul-19 02:00N 51°07' E 001°20'0 0.0
2018-Jul-19 01:29N 51°07' E 001°20'2 4.2
2018-Jul-19 01:00N 51°07' E 001°23'918.3
2018-Jul-19 00:30N 51°03' E 001°36'918.1
2018-Jul-19 00:00N 50°58' E 001°49'2 3.4
2018-Jul-18 23:30N 50°58' E 001°51'0 0.0
2018-Jul-18 23:00N 50°58' E 001°51'1 2.4
2018-Jul-18 22:31N 50°58' E 001°49'816.4
2018-Jul-18 22:00N 50°60' E 001°37'1019.0
2018-Jul-18 21:30N 51°06' E 001°24'3 6.2
2018-Jul-18 20:58N 51°07' E 001°20'0 0.0
2018-Jul-18 20:30N 51°07' E 001°20'510.9
2018-Jul-18 20:00N 51°06' E 001°28'816.8
2018-Jul-18 19:30N 51°01' E 001°39'815.6
2018-Jul-18 19:00N 50°58' E 001°51'0 0.4
2018-Jul-18 18:30N 50°58' E 001°51'1 2.4
2018-Jul-18 18:01N 50°58' E 001°49'918.7
2018-Jul-18 17:30N 51°01' E 001°35'1019.3
2018-Jul-18 17:00N 51°07' E 001°23'2 3.2
2018-Jul-18 16:28N 51°07' E 001°20'0 0.1
2018-Jul-18 15:53N 51°07' E 001°20'512.1
2018-Jul-18 15:30N 51°06' E 001°27'918.6
2018-Jul-18 15:00N 51°01' E 001°39'715.0
2018-Jul-18 14:30N 50°58' E 001°51'0 0.3
2018-Jul-18 13:30N 50°58' E 001°50'917.8
2018-Jul-18 13:00N 51°00' E 001°36'918.5
2018-Jul-18 12:30N 51°06' E 001°24'3 3.6
2018-Jul-18 11:38N 51°07' E 001°20'0 0.0
2018-Jul-18 11:25N 51°07' E 001°20'910.0
2018-Jul-18 10:30N 51°04' E 001°34'917.2
2018-Jul-18 10:00N 50°58' E 001°44'4 9.0
2018-Jul-18 09:30N 50°58' E 001°51'0 0.0
2018-Jul-18 08:58N 50°58' E 001°51'2 4.4
2018-Jul-18 08:30N 50°58' E 001°48'816.9
2018-Jul-18 08:00N 50°60' E 001°35'1019.3
2018-Jul-18 07:30N 51°06' E 001°23'2 3.5
2018-Jul-18 06:52N 51°07' E 001°20'0 0.0
2018-Jul-18 06:22N 51°07' E 001°20'2 4.8
2018-Jul-18 06:01N 51°07' E 001°23'918.4
2018-Jul-18 05:31N 51°02' E 001°35'917.4
2018-Jul-18 05:00N 50°58' E 001°48'2 4.3
2018-Jul-18 04:30N 50°58' E 001°51'0 0.0
2018-Jul-18 04:00N 50°58' E 001°51'4 9.1
2018-Jul-18 03:30N 50°58' E 001°44'1019.5
2018-Jul-18 03:01N 51°02' E 001°30'811.5
2018-Jul-18 02:18N 51°07' E 001°20'0 0.0
2018-Jul-18 01:49N 51°07' E 001°20'1 4.6
2018-Jul-18 01:31N 51°07' E 001°22'918.7
2018-Jul-18 01:01N 51°02' E 001°35'918.0
2018-Jul-18 00:31N 50°58' E 001°48'2 3.9
2018-Jul-18 00:00N 50°58' E 001°51'0 0.5
2018-Jul-17 23:29N 50°58' E 001°51'715.5
2018-Jul-17 23:00N 50°60' E 001°39'918.5
2018-Jul-17 22:30N 51°05' E 001°27'5 9.1
2018-Jul-17 21:57N 51°07' E 001°20'0 0.0
2018-Jul-17 21:27N 51°07' E 001°20'2 3.8
2018-Jul-17 21:00N 51°07' E 001°23'918.8
2018-Jul-17 20:31N 51°02' E 001°35'918.4
2018-Jul-17 20:00N 50°58' E 001°49'1 2.8
2018-Jul-17 19:31N 50°58' E 001°51'0 0.0
2018-Jul-17 19:00N 50°58' E 001°51'714.0
2018-Jul-17 18:30N 50°58' E 001°40'918.7
2018-Jul-17 18:00N 51°03' E 001°27'611.1
2018-Jul-17 17:27N 51°07' E 001°20'0 0.0
2018-Jul-17 16:50N 51°07' E 001°20'2 6.0
2018-Jul-17 16:30N 51°07' E 001°23'917.2
2018-Jul-17 16:00N 51°03' E 001°35'816.9
2018-Jul-17 15:30N 50°58' E 001°46'3 5.2
2018-Jul-17 14:56N 50°58' E 001°51'0 0.0
2018-Jul-17 14:30N 50°58' E 001°51'0 0.0
2018-Jul-17 13:57N 50°58' E 001°51'4 9.2
2018-Jul-17 13:30N 50°58' E 001°45'918.9
2018-Jul-17 13:01N 51°02' E 001°31'917.0
2018-Jul-17 12:30N 51°07' E 001°20'0 0.1
2018-Jul-17 11:59N 51°07' E 001°20'0 0.6
2018-Jul-17 11:29N 51°07' E 001°20'0 0.3
2018-Jul-17 11:00N 51°07' E 001°20'817.0
2018-Jul-17 10:31N 51°03' E 001°32'1019.5
2018-Jul-17 10:01N 50°58' E 001°45'4 7.1
2018-Jul-17 09:29N 50°58' E 001°51'0 0.0
2018-Jul-17 08:58N 50°58' E 001°51'3 7.5
2018-Jul-17 08:31N 50°58' E 001°45'917.1
2018-Jul-17 08:00N 51°01' E 001°33'1019.2
2018-Jul-17 07:30N 51°07' E 001°21'1 0.5
2018-Jul-17 06:21N 51°07' E 001°20'2 5.0
2018-Jul-17 06:00N 51°07' E 001°23'918.1
2018-Jul-17 05:31N 51°02' E 001°35'917.9
2018-Jul-17 05:00N 50°58' E 001°48'2 4.1
2018-Jul-17 04:30N 50°58' E 001°51'0 0.0
2018-Jul-17 04:00N 50°58' E 001°51'1 2.0
2018-Jul-17 03:30N 50°58' E 001°50'918.1
2018-Jul-17 03:00N 51°00' E 001°35'917.6
2018-Jul-17 02:31N 51°06' E 001°24'3 4.1
2018-Jul-17 01:44N 51°07' E 001°20'0 0.0
2018-Jul-17 01:25N 51°07' E 001°20'0 0.5
2018-Jul-17 01:00N 51°07' E 001°20'816.3
2018-Jul-17 00:30N 51°05' E 001°33'1313.5
2018-Jul-16 23:30N 50°58' E 001°51'0 0.0
2018-Jul-16 23:00N 50°58' E 001°51'0 0.0
2018-Jul-16 22:30N 50°58' E 001°51'510.5
2018-Jul-16 22:01N 50°58' E 001°43'918.1
2018-Jul-16 21:30N 51°03' E 001°30'815.8
2018-Jul-16 21:00N 51°07' E 001°20'0 0.4
2018-Jul-16 20:25N 51°07' E 001°20'0 0.2
2018-Jul-16 20:00N 51°07' E 001°20'714.4
2018-Jul-16 19:30N 51°05' E 001°31'1019.3
2018-Jul-16 19:00N 50°59' E 001°43'510.4
2018-Jul-16 18:30N 50°58' E 001°51'0 0.0
2018-Jul-16 18:00N 50°58' E 001°51'5 9.9
2018-Jul-16 17:31N 50°58' E 001°43'1019.2
2018-Jul-16 17:01N 51°03' E 001°30'815.2
2018-Jul-16 16:30N 51°07' E 001°20'0 0.4
2018-Jul-16 15:57N 51°07' E 001°20'1 1.3
2018-Jul-16 15:31N 51°07' E 001°21'816.3
2018-Jul-16 15:00N 51°05' E 001°34'918.3
2018-Jul-16 14:30N 50°59' E 001°44'510.0
2018-Jul-16 14:00N 50°58' E 001°52'0 0.0
2018-Jul-16 13:30N 50°58' E 001°52'1 1.5
2018-Jul-16 13:00N 50°58' E 001°51'918.8
2018-Jul-16 12:31N 51°01' E 001°36'1019.4
2018-Jul-16 12:01N 51°06' E 001°23'2 4.5
2018-Jul-16 11:28N 51°07' E 001°20'0 0.3
2018-Jul-16 11:00N 51°07' E 001°20'715.2
2018-Jul-16 10:31N 51°04' E 001°30'1019.6
2018-Jul-16 10:01N 50°58' E 001°43'5 9.5
2018-Jul-16 09:30N 50°58' E 001°51'0 0.0
2018-Jul-16 09:00N 50°58' E 001°51'3 5.4
2018-Jul-16 08:30N 50°58' E 001°47'816.7
2018-Jul-16 08:01N 50°60' E 001°34'918.7
2018-Jul-16 07:30N 51°06' E 001°23'2 3.6
2018-Jul-16 06:53N 51°07' E 001°20'0 0.0
2018-Jul-16 06:28N 51°07' E 001°20'2 3.7
2018-Jul-16 06:01N 51°07' E 001°23'1018.9
2018-Jul-16 05:30N 51°02' E 001°36'918.1
2018-Jul-16 05:00N 50°58' E 001°49'2 3.3
2018-Jul-16 04:31N 50°58' E 001°51'0 0.0
2018-Jul-16 04:00N 50°58' E 001°51'1 1.5
2018-Jul-16 03:30N 50°58' E 001°50'917.2
2018-Jul-16 03:00N 51°00' E 001°37'918.2
2018-Jul-16 02:30N 51°05' E 001°25'4 3.3
2018-Jul-16 01:22N 51°07' E 001°20'0 0.9
2018-Jul-16 01:01N 51°07' E 001°21'917.3
2018-Jul-16 00:30N 51°05' E 001°34'918.9
2018-Jul-16 00:00N 50°59' E 001°45'4 8.5
2018-Jul-15 23:30N 50°58' E 001°51'0 0.0
2018-Jul-15 23:00N 50°58' E 001°51'0 0.0
2018-Jul-15 22:30N 50°58' E 001°51'611.8
2018-Jul-15 22:01N 50°59' E 001°42'816.5
2018-Jul-15 21:30N 51°03' E 001°31'816.0
2018-Jul-15 21:00N 51°07' E 001°20'1 1.2
2018-Jul-15 20:24N 51°07' E 001°20'0 0.7
2018-Jul-15 20:01N 51°07' E 001°20'815.1
2018-Jul-15 19:30N 51°04' E 001°31'1020.0
2018-Jul-15 19:01N 50°58' E 001°44'4 8.4
2018-Jul-15 18:30N 50°58' E 001°51'0 0.0
2018-Jul-15 18:00N 50°58' E 001°51'714.4
2018-Jul-15 17:30N 50°59' E 001°40'1019.6
2018-Jul-15 17:00N 51°05' E 001°27'5 6.7
2018-Jul-15 16:15N 51°07' E 001°20'0 0.8
2018-Jul-15 16:00N 51°07' E 001°20'815.7
2018-Jul-15 15:31N 51°05' E 001°32'918.7
2018-Jul-15 15:00N 50°59' E 001°44'510.3
2018-Jul-15 14:30N 50°58' E 001°52'0 0.0
2018-Jul-15 14:00N 50°58' E 001°52'0 0.9
2018-Jul-15 13:30N 50°58' E 001°51'918.7
2018-Jul-15 13:00N 50°60' E 001°36'1019.4
2018-Jul-15 12:30N 51°06' E 001°24'3 6.0
2018-Jul-15 11:59N 51°07' E 001°20'0 0.8
2018-Jul-15 11:31N 51°07' E 001°21'918.9
2018-Jul-15 11:01N 51°04' E 001°35'918.9
2018-Jul-15 10:30N 50°58' E 001°46'3 5.9
2018-Jul-15 10:00N 50°58' E 001°51'0 0.0
2018-Jul-15 09:30N 50°58' E 001°51'0 0.4
2018-Jul-15 09:00N 50°58' E 001°51'611.7
2018-Jul-15 08:30N 50°58' E 001°42'918.3
2018-Jul-15 08:00N 51°03' E 001°29'713.9
2018-Jul-15 07:30N 51°07' E 001°20'0 0.0
2018-Jul-15 07:00N 51°07' E 001°20'0 0.0
2018-Jul-15 06:30N 51°07' E 001°20'0 0.0
2018-Jul-15 06:00N 51°07' E 001°20'3 7.0
2018-Jul-15 05:30N 51°06' E 001°25'919.0
2018-Jul-15 05:00N 51°01' E 001°37'917.6
2018-Jul-15 04:30N 50°58' E 001°51'0 0.4
2018-Jul-15 04:00N 50°58' E 001°51'0 0.7
2018-Jul-15 03:30N 50°58' E 001°51'917.1
2018-Jul-15 03:01N 51°00' E 001°37'1018.9
2018-Jul-15 02:30N 51°05' E 001°25'4 6.8
2018-Jul-15 01:59N 51°07' E 001°20'0 0.0
2018-Jul-15 01:30N 51°07' E 001°20'1 2.8
2018-Jul-15 01:00N 51°07' E 001°22'917.4
2018-Jul-15 00:30N 51°03' E 001°34'917.2
2018-Jul-15 00:01N 50°58' E 001°45'4 7.8
2018-Jul-14 23:30N 50°58' E 001°52'0 0.0
2018-Jul-14 23:00N 50°58' E 001°52'0 0.0
2018-Jul-14 22:30N 50°58' E 001°52'4 7.0
2018-Jul-14 22:00N 50°58' E 001°46'917.9
2018-Jul-14 21:30N 51°02' E 001°34'918.2
2018-Jul-14 21:00N 51°07' E 001°21'1 1.7
2018-Jul-14 20:30N 51°07' E 001°20'0 0.3
2018-Jul-14 20:00N 51°07' E 001°20'713.7
2018-Jul-14 19:30N 51°04' E 001°30'917.3
2018-Jul-14 19:01N 50°60' E 001°41'612.2
2018-Jul-14 18:30N 50°58' E 001°51'0 0.0
2018-Jul-14 18:01N 50°58' E 001°51'612.1
2018-Jul-14 17:30N 50°58' E 001°41'918.6
2018-Jul-14 17:00N 51°03' E 001°29'713.3
2018-Jul-14 16:29N 51°07' E 001°20'0 0.0
2018-Jul-14 15:58N 51°07' E 001°20'3 5.9
2018-Jul-14 15:31N 51°07' E 001°24'918.6
2018-Jul-14 15:01N 51°02' E 001°37'917.1
2018-Jul-14 14:31N 50°58' E 001°49'1 1.0
2018-Jul-14 13:29N 50°58' E 001°51'713.9
2018-Jul-14 13:00N 50°59' E 001°41'1019.1
2018-Jul-14 12:30N 51°04' E 001°28'611.1
2018-Jul-14 11:57N 51°07' E 001°20'0 0.0
2018-Jul-14 11:24N 51°07' E 001°20'1 2.5
2018-Jul-14 11:00N 51°07' E 001°22'918.6
2018-Jul-14 10:30N 51°03' E 001°34'918.6
2018-Jul-14 10:00N 50°58' E 001°47'2 4.7
2018-Jul-14 09:30N 50°58' E 001°51'0 0.0
2018-Jul-14 09:01N 50°58' E 001°51'5 9.1
2018-Jul-14 08:30N 50°58' E 001°44'917.7
2018-Jul-14 08:00N 51°02' E 001°31'9 8.8
2018-Jul-14 07:00N 51°07' E 001°20'0 0.0
2018-Jul-14 06:30N 51°07' E 001°20'0 0.3
2018-Jul-14 06:00N 51°07' E 001°20'816.8
2018-Jul-14 05:30N 51°03' E 001°32'1019.8
2018-Jul-14 05:01N 50°58' E 001°45'4 6.7
2018-Jul-14 04:27N 50°58' E 001°51'0 0.0
2018-Jul-14 04:00N 50°58' E 001°51'0 1.0
2018-Jul-14 03:30N 50°58' E 001°50'816.7
2018-Jul-14 03:00N 50°60' E 001°37'918.4
2018-Jul-14 02:30N 51°06' E 001°26'4 8.1
2018-Jul-14 02:00N 51°07' E 001°20'0 0.0
2018-Jul-14 01:19N 51°07' E 001°20'1 3.1
2018-Jul-14 01:01N 51°07' E 001°22'816.8
2018-Jul-14 00:30N 51°04' E 001°34'917.5
2018-Jul-14 00:00N 50°59' E 001°45'4 8.8
2018-Jul-13 23:30N 50°58' E 001°52'0 0.0
2018-Jul-13 23:00N 50°58' E 001°52'0 0.0
2018-Jul-13 22:29N 50°58' E 001°52'715.0
2018-Jul-13 22:00N 50°59' E 001°40'919.0
2018-Jul-13 21:31N 51°03' E 001°27'611.5
2018-Jul-13 20:58N 51°07' E 001°20'0 0.0
2018-Jul-13 20:26N 51°07' E 001°20'0 1.1
2018-Jul-13 20:00N 51°07' E 001°21'816.9
2018-Jul-13 19:31N 51°03' E 001°32'816.7
2018-Jul-13 19:00N 50°59' E 001°44'5 8.8
2018-Jul-13 18:29N 50°58' E 001°51'0 0.0
2018-Jul-13 17:59N 50°58' E 001°51'511.0
2018-Jul-13 17:30N 50°58' E 001°43'917.6
2018-Jul-13 17:00N 51°02' E 001°31'816.6
2018-Jul-13 16:30N 51°07' E 001°20'0 0.5
2018-Jul-13 15:40N 51°07' E 001°20'0 1.2
2018-Jul-13 15:31N 51°07' E 001°20'917.7
2018-Jul-13 15:00N 51°04' E 001°34'918.8
2018-Jul-13 14:30N 50°58' E 001°45'4 3.5
2018-Jul-13 13:26N 50°58' E 001°51'614.1
2018-Jul-13 13:00N 50°59' E 001°41'1019.5
2018-Jul-13 12:30N 51°04' E 001°28'611.3
2018-Jul-13 11:57N 51°07' E 001°20'0 0.0
2018-Jul-13 11:28N 51°07' E 001°20'0 0.3
2018-Jul-13 11:00N 51°07' E 001°20'815.1
2018-Jul-13 10:30N 51°05' E 001°32'918.4
2018-Jul-13 10:00N 50°59' E 001°43'5 9.4
2018-Jul-13 09:28N 50°58' E 001°51'0 0.0
2018-Jul-13 08:54N 50°58' E 001°51'3 8.2
2018-Jul-13 08:30N 50°58' E 001°46'917.9
2018-Jul-13 08:00N 51°02' E 001°33'918.4
2018-Jul-13 07:30N 51°07' E 001°21'1 1.4
2018-Jul-13 06:57N 51°07' E 001°20'0 0.0
2018-Jul-13 06:12N 51°07' E 001°20'1 4.7
2018-Jul-13 06:01N 51°07' E 001°22'1019.2
2018-Jul-13 05:31N 51°02' E 001°35'1019.1
2018-Jul-13 05:01N 50°58' E 001°49'2 3.1
2018-Jul-13 04:30N 50°58' E 001°51'0 0.0
2018-Jul-13 04:00N 50°58' E 001°51'2 3.5
2018-Jul-13 03:30N 50°58' E 001°48'816.6
2018-Jul-13 03:00N 50°60' E 001°35'918.3
2018-Jul-13 02:30N 51°06' E 001°24'3 6.0
2018-Jul-13 02:00N 51°07' E 001°20'0 0.0
2018-Jul-13 01:26N 51°07' E 001°20'0 0.8
2018-Jul-13 00:59N 51°07' E 001°20'817.0
2018-Jul-13 00:30N 51°04' E 001°32'918.5
2018-Jul-13 00:01N 50°59' E 001°44'4 7.9
2018-Jul-12 23:27N 50°58' E 001°51'0 0.0
2018-Jul-12 22:54N 50°58' E 001°51'4 9.3
2018-Jul-12 22:29N 50°58' E 001°45'919.7
2018-Jul-12 22:00N 51°02' E 001°32'917.3
2018-Jul-12 21:30N 51°07' E 001°20'0 0.1
2018-Jul-12 20:51N 51°07' E 001°20'0 0.6
2018-Jul-12 20:29N 51°07' E 001°20'817.2
2018-Jul-12 20:00N 51°04' E 001°32'1019.5
2018-Jul-12 19:31N 50°58' E 001°45'4 7.7
2018-Jul-12 19:00N 50°58' E 001°51'0 0.0
2018-Jul-12 18:30N 50°58' E 001°51'3 5.4
2018-Jul-12 17:59N 50°58' E 001°47'816.6
2018-Jul-12 17:30N 50°60' E 001°34'918.7
2018-Jul-12 17:00N 51°06' E 001°23'2 3.8
2018-Jul-12 16:23N 51°07' E 001°20'0 0.1
2018-Jul-12 15:57N 51°07' E 001°20'511.7
2018-Jul-12 15:30N 51°05' E 001°28'918.6
2018-Jul-12 15:00N 50°60' E 001°39'714.6
2018-Jul-12 14:30N 50°58' E 001°51'0 0.0
2018-Jul-12 14:00N 50°58' E 001°51'1 1.8
2018-Jul-12 13:30N 50°58' E 001°50'917.8
2018-Jul-12 13:00N 51°01' E 001°36'919.2
2018-Jul-12 12:30N 51°06' E 001°23'2 1.7
2018-Jul-12 11:15N 51°07' E 001°20'0 0.9
2018-Jul-12 10:59N 51°07' E 001°20'715.5
2018-Jul-12 10:31N 51°04' E 001°31'918.3
2018-Jul-12 10:01N 50°59' E 001°43'5 6.7
2018-Jul-12 09:14N 50°58' E 001°51'0 0.0
2018-Jul-12 08:53N 50°58' E 001°51'1 2.2
2018-Jul-12 08:31N 50°58' E 001°50'918.5
2018-Jul-12 08:00N 50°60' E 001°35'918.7
2018-Jul-12 07:30N 51°05' E 001°23'3 2.4
2018-Jul-12 06:13N 51°07' E 001°20'1 5.1
2018-Jul-12 06:00N 51°07' E 001°22'919.2
2018-Jul-12 05:31N 51°02' E 001°35'918.9
2018-Jul-12 05:00N 50°58' E 001°48'2 3.3
2018-Jul-12 04:30N 50°58' E 001°51'0 0.0
2018-Jul-12 04:00N 50°58' E 001°51'1 1.4
2018-Jul-12 03:31N 50°58' E 001°50'  
Track history (hours):
 
Tides and Currents Weather Stations Pressure Air Temp Water Temp Dewpoint Dewpoint Depression Visibility Wind Speed Wind Dir Waves Ship Positions

Pride Of Canterbury

Operator: P & O Ferries

Last reported at 2018-Jul-22 03:00 UTC. Time now 2018-Jul-22 03:22 UTC.
Position N 50°60' E 001°36'.

Length 180 m; draft 5.7 m.

Type: Passenger vessel. MMSI: 232001060.

Date/timePositionNaut miles runAvg speedWind from/ knotsBaromVisibWave heightAir tempDewpointWater temp
2018-Jul-22 03:00N 50°60' E 001°36'918.9
2018-Jul-22 02:30N 51°06' E 001°24'3 2.4
2018-Jul-22 01:15N 51°07' E 001°20'1 4.9
2018-Jul-22 01:00N 51°07' E 001°22'917.8
2018-Jul-22 00:30N 51°03' E 001°34'919.0
2018-Jul-22 00:01N 50°58' E 001°47'2 4.7
2018-Jul-21 23:29N 50°58' E 001°51'0 0.0
2018-Jul-21 23:01N 50°58' E 001°51'5 9.4
2018-Jul-21 22:31N 50°58' E 001°44'918.1
2018-Jul-21 22:00N 51°03' E 001°31'8 7.4
2018-Jul-21 20:52N 51°07' E 001°20'411.8
2018-Jul-21 20:30N 51°06' E 001°27'918.3
2018-Jul-21 20:00N 51°02' E 001°39'815.9
2018-Jul-21 19:30N 50°58' E 001°51'1 1.1
2018-Jul-21 18:58N 50°58' E 001°52'0 0.0
2018-Jul-21 18:30N 50°58' E 001°52'612.0
2018-Jul-21 18:00N 50°59' E 001°42'918.8
2018-Jul-21 17:30N 51°03' E 001°30'7 9.0
2018-Jul-21 16:43N 51°07' E 001°20'0 0.0
2018-Jul-21 16:16N 51°07' E 001°20'1 4.0
2018-Jul-21 16:00N 51°07' E 001°22'815.6
2018-Jul-21 15:31N 51°04' E 001°33'918.9
2018-Jul-21 15:00N 50°58' E 001°45'4 7.5
2018-Jul-21 14:30N 50°58' E 001°51'1 1.1
2018-Jul-21 13:30N 50°58' E 001°49'816.7
2018-Jul-21 13:00N 50°60' E 001°36'918.2
2018-Jul-21 12:30N 51°05' E 001°25'4 5.5
2018-Jul-21 11:49N 51°07' E 001°20'0 0.0
2018-Jul-21 11:27N 51°07' E 001°20'3 5.8
2018-Jul-21 11:01N 51°07' E 001°24'918.9
2018-Jul-21 10:31N 51°02' E 001°37'917.6
2018-Jul-21 10:01N 50°58' E 001°50'1 1.7
2018-Jul-21 09:30N 50°58' E 001°51'0 0.0
2018-Jul-21 09:01N 50°58' E 001°51'510.6
2018-Jul-21 08:31N 50°58' E 001°43'917.8
2018-Jul-21 08:00N 51°04' E 001°33'916.5
2018-Jul-21 07:29N 51°07' E 001°20'0 0.0
2018-Jul-21 06:46N 51°07' E 001°20'0 0.1
2018-Jul-21 06:24N 51°07' E 001°20'1315.0
2018-Jul-21 05:30N 51°01' E 001°39'815.8
2018-Jul-21 05:00N 50°58' E 001°51'0 0.6
2018-Jul-21 04:30N 50°58' E 001°51'0 0.3
2018-Jul-21 03:59N 50°58' E 001°51'612.3
2018-Jul-21 03:30N 50°58' E 001°41'1019.1
2018-Jul-21 03:00N 51°04' E 001°29'713.2
2018-Jul-21 02:30N 51°07' E 001°20'0 0.0
2018-Jul-21 01:36N 51°07' E 001°20'0 0.0
2018-Jul-21 01:26N 51°07' E 001°20'1 1.3
2018-Jul-21 01:00N 51°07' E 001°21'918.7
2018-Jul-21 00:31N 51°02' E 001°34'1019.3
2018-Jul-21 00:00N 50°58' E 001°47'2 4.6
2018-Jul-20 23:30N 50°58' E 001°51'0 0.0
2018-Jul-20 23:00N 50°58' E 001°51'1 1.4
2018-Jul-20 22:30N 50°58' E 001°50'917.7
2018-Jul-20 22:00N 50°59' E 001°36'918.9
2018-Jul-20 21:30N 51°05' E 001°25'4 3.1
2018-Jul-20 20:18N 51°07' E 001°20'0 1.0
2018-Jul-20 20:00N 51°07' E 001°21'917.4
2018-Jul-20 19:30N 51°04' E 001°33'918.6
2018-Jul-20 19:00N 50°58' E 001°45'4 7.4
2018-Jul-20 18:29N 50°58' E 001°51'0 0.4
2018-Jul-20 17:56N 50°58' E 001°51'818.3
2018-Jul-20 17:30N 50°58' E 001°38'919.2
2018-Jul-20 17:01N 51°04' E 001°26'5 4.2
2018-Jul-20 15:50N 51°07' E 001°20'411.4
2018-Jul-20 15:30N 51°06' E 001°26'1019.7
2018-Jul-20 15:00N 51°01' E 001°39'815.7
2018-Jul-20 14:31N 50°58' E 001°51'0 0.4
2018-Jul-20 14:00N 50°58' E 001°51'2 5.0
2018-Jul-20 13:30N 50°58' E 001°47'816.5
2018-Jul-20 13:00N 51°00' E 001°34'918.2
2018-Jul-20 12:31N 51°06' E 001°23'3 2.5
2018-Jul-20 11:30N 51°07' E 001°20'3 5.9
2018-Jul-20 11:00N 51°07' E 001°25'917.4
2018-Jul-20 10:31N 51°02' E 001°36'918.1
2018-Jul-20 10:00N 50°58' E 001°49'1 2.1
2018-Jul-20 09:30N 50°58' E 001°51'0 0.0
2018-Jul-20 09:00N 50°58' E 001°51'4 9.2
2018-Jul-20 08:30N 50°58' E 001°44'918.3
2018-Jul-20 08:00N 51°02' E 001°31'916.6
2018-Jul-20 07:29N 51°07' E 001°20'0 0.0
2018-Jul-20 07:00N 51°07' E 001°20'0 0.0
2018-Jul-20 06:29N 51°07' E 001°20'4 8.5
2018-Jul-20 06:00N 51°07' E 001°26'816.9
2018-Jul-20 05:30N 51°03' E 001°38'816.0
2018-Jul-20 05:00N 50°58' E 001°49'1 2.7
2018-Jul-20 04:30N 50°58' E 001°51'0 0.0
2018-Jul-20 04:00N 50°58' E 001°51'0 0.7
2018-Jul-20 03:30N 50°58' E 001°51'917.8
2018-Jul-20 03:01N 50°60' E 001°37'918.8
2018-Jul-20 02:30N 51°05' E 001°25'3 6.1
2018-Jul-20 01:57N 51°07' E 001°20'0 0.1
2018-Jul-20 01:29N 51°07' E 001°20'611.8
2018-Jul-20 01:00N 51°05' E 001°28'1019.3
2018-Jul-20 00:30N 50°60' E 001°41'713.1
2018-Jul-20 00:00N 50°58' E 001°51'0 0.0
2018-Jul-19 23:30N 50°58' E 001°51'0 0.0
2018-Jul-19 23:00N 50°58' E 001°51'613.1
2018-Jul-19 22:30N 50°58' E 001°41'917.6
2018-Jul-19 22:00N 51°03' E 001°29'714.5
2018-Jul-19 21:30N 51°07' E 001°20'0 0.0
2018-Jul-19 20:59N 51°07' E 001°20'0 0.7
2018-Jul-19 20:30N 51°07' E 001°21'917.8
2018-Jul-19 20:00N 51°04' E 001°34'918.8
2018-Jul-19 19:31N 50°58' E 001°45'4 7.1
2018-Jul-19 19:00N 50°58' E 001°51'0 0.0
2018-Jul-19 18:30N 50°58' E 001°51'1 2.2
2018-Jul-19 18:00N 50°58' E 001°49'918.2
2018-Jul-19 17:30N 51°01' E 001°36'918.2
2018-Jul-19 17:00N 51°06' E 001°23'3 5.0
2018-Jul-19 16:30N 51°07' E 001°20'0 0.0
2018-Jul-19 15:56N 51°07' E 001°20'1 3.1
2018-Jul-19 15:30N 51°07' E 001°22'918.6
2018-Jul-19 15:00N 51°03' E 001°35'1110.9
2018-Jul-19 14:00N 50°58' E 001°51'0 0.0
2018-Jul-19 13:30N 50°58' E 001°51'5 9.6
2018-Jul-19 13:01N 50°58' E 001°43'917.8
2018-Jul-19 12:31N 51°02' E 001°31'816.2
2018-Jul-19 12:00N 51°07' E 001°20'0 0.5
2018-Jul-19 11:29N 51°07' E 001°20'0 0.2
2018-Jul-19 11:00N 51°07' E 001°20'714.7
2018-Jul-19 10:31N 51°05' E 001°31'1019.1
2018-Jul-19 10:00N 50°59' E 001°43'510.4
2018-Jul-19 09:30N 50°58' E 001°51'0 0.0
2018-Jul-19 09:00N 50°58' E 001°51'2 4.2
2018-Jul-19 08:30N 50°58' E 001°48'917.3
2018-Jul-19 08:01N 51°01' E 001°35'1019.3
2018-Jul-19 07:30N 51°07' E 001°22'2 3.3
2018-Jul-19 06:59N 51°07' E 001°20'0 0.0
2018-Jul-19 06:30N 51°07' E 001°20'4 8.8
2018-Jul-19 06:00N 51°07' E 001°27'816.9
2018-Jul-19 05:31N 51°02' E 001°38'816.5
2018-Jul-19 05:00N 50°58' E 001°50'1 1.6
2018-Jul-19 04:30N 50°58' E 001°51'0 0.0
2018-Jul-19 04:00N 50°58' E 001°51'4 7.3
2018-Jul-19 03:30N 50°58' E 001°45'1019.9
2018-Jul-19 03:01N 51°01' E 001°30'816.9
2018-Jul-19 02:30N 51°07' E 001°21'1 1.7
2018-Jul-19 02:00N 51°07' E 001°20'0 0.0
2018-Jul-19 01:29N 51°07' E 001°20'2 4.2
2018-Jul-19 01:00N 51°07' E 001°23'918.3
2018-Jul-19 00:30N 51°03' E 001°36'918.1
2018-Jul-19 00:00N 50°58' E 001°49'2 3.4
2018-Jul-18 23:30N 50°58' E 001°51'0 0.0
2018-Jul-18 23:00N 50°58' E 001°51'1 2.4
2018-Jul-18 22:31N 50°58' E 001°49'816.4
2018-Jul-18 22:00N 50°60' E 001°37'1019.0
2018-Jul-18 21:30N 51°06' E 001°24'3 6.2
2018-Jul-18 20:58N 51°07' E 001°20'0 0.0
2018-Jul-18 20:30N 51°07' E 001°20'510.9
2018-Jul-18 20:00N 51°06' E 001°28'816.8
2018-Jul-18 19:30N 51°01' E 001°39'815.6
2018-Jul-18 19:00N 50°58' E 001°51'0 0.4
2018-Jul-18 18:30N 50°58' E 001°51'1 2.4
2018-Jul-18 18:01N 50°58' E 001°49'918.7
2018-Jul-18 17:30N 51°01' E 001°35'1019.3
2018-Jul-18 17:00N 51°07' E 001°23'2 3.2
2018-Jul-18 16:28N 51°07' E 001°20'0 0.1
2018-Jul-18 15:53N 51°07' E 001°20'512.1
2018-Jul-18 15:30N 51°06' E 001°27'918.6
2018-Jul-18 15:00N 51°01' E 001°39'715.0
2018-Jul-18 14:30N 50°58' E 001°51'0 0.3
2018-Jul-18 13:30N 50°58' E 001°50'917.8
2018-Jul-18 13:00N 51°00' E 001°36'918.5
2018-Jul-18 12:30N 51°06' E 001°24'3 3.6
2018-Jul-18 11:38N 51°07' E 001°20'0 0.0
2018-Jul-18 11:25N 51°07' E 001°20'910.0
2018-Jul-18 10:30N 51°04' E 001°34'917.2
2018-Jul-18 10:00N 50°58' E 001°44'4 9.0
2018-Jul-18 09:30N 50°58' E 001°51'0 0.0
2018-Jul-18 08:58N 50°58' E 001°51'2 4.4
2018-Jul-18 08:30N 50°58' E 001°48'816.9
2018-Jul-18 08:00N 50°60' E 001°35'1019.3
2018-Jul-18 07:30N 51°06' E 001°23'2 3.5
2018-Jul-18 06:52N 51°07' E 001°20'0 0.0
2018-Jul-18 06:22N 51°07' E 001°20'2 4.8
2018-Jul-18 06:01N 51°07' E 001°23'918.4
2018-Jul-18 05:31N 51°02' E 001°35'917.4
2018-Jul-18 05:00N 50°58' E 001°48'2 4.3
2018-Jul-18 04:30N 50°58' E 001°51'0 0.0
2018-Jul-18 04:00N 50°58' E 001°51'4 9.1
2018-Jul-18 03:30N 50°58' E 001°44'1019.5
2018-Jul-18 03:01N 51°02' E 001°30'811.5
2018-Jul-18 02:18N 51°07' E 001°20'0 0.0
2018-Jul-18 01:49N 51°07' E 001°20'1 4.6
2018-Jul-18 01:31N 51°07' E 001°22'918.7
2018-Jul-18 01:01N 51°02' E 001°35'918.0
2018-Jul-18 00:31N 50°58' E 001°48'2 3.9
2018-Jul-18 00:00N 50°58' E 001°51'0 0.5
2018-Jul-17 23:29N 50°58' E 001°51'715.5
2018-Jul-17 23:00N 50°60' E 001°39'918.5
2018-Jul-17 22:30N 51°05' E 001°27'5 9.1
2018-Jul-17 21:57N 51°07' E 001°20'0 0.0
2018-Jul-17 21:27N 51°07' E 001°20'2 3.8
2018-Jul-17 21:00N 51°07' E 001°23'918.8
2018-Jul-17 20:31N 51°02' E 001°35'918.4
2018-Jul-17 20:00N 50°58' E 001°49'1 2.8
2018-Jul-17 19:31N 50°58' E 001°51'0 0.0
2018-Jul-17 19:00N 50°58' E 001°51'714.0
2018-Jul-17 18:30N 50°58' E 001°40'918.7
2018-Jul-17 18:00N 51°03' E 001°27'611.1
2018-Jul-17 17:27N 51°07' E 001°20'0 0.0
2018-Jul-17 16:50N 51°07' E 001°20'2 6.0
2018-Jul-17 16:30N 51°07' E 001°23'917.2
2018-Jul-17 16:00N 51°03' E 001°35'816.9
2018-Jul-17 15:30N 50°58' E 001°46'3 5.2
2018-Jul-17 14:56N 50°58' E 001°51'0 0.0
2018-Jul-17 14:30N 50°58' E 001°51'0 0.0
2018-Jul-17 13:57N 50°58' E 001°51'4 9.2
2018-Jul-17 13:30N 50°58' E 001°45'918.9
2018-Jul-17 13:01N 51°02' E 001°31'917.0
2018-Jul-17 12:30N 51°07' E 001°20'0 0.1
2018-Jul-17 11:59N 51°07' E 001°20'0 0.6
2018-Jul-17 11:29N 51°07' E 001°20'0 0.3
2018-Jul-17 11:00N 51°07' E 001°20'817.0
2018-Jul-17 10:31N 51°03' E 001°32'1019.5
2018-Jul-17 10:01N 50°58' E 001°45'4 7.1
2018-Jul-17 09:29N 50°58' E 001°51'0 0.0
2018-Jul-17 08:58N 50°58' E 001°51'3 7.5
2018-Jul-17 08:31N 50°58' E 001°45'917.1
2018-Jul-17 08:00N 51°01' E 001°33'1019.2
2018-Jul-17 07:30N 51°07' E 001°21'1 0.5
2018-Jul-17 06:21N 51°07' E 001°20'2 5.0
2018-Jul-17 06:00N 51°07' E 001°23'918.1
2018-Jul-17 05:31N 51°02' E 001°35'917.9
2018-Jul-17 05:00N 50°58' E 001°48'2 4.1
2018-Jul-17 04:30N 50°58' E 001°51'0 0.0
2018-Jul-17 04:00N 50°58' E 001°51'1 2.0
2018-Jul-17 03:30N 50°58' E 001°50'918.1
2018-Jul-17 03:00N 51°00' E 001°35'917.6
2018-Jul-17 02:31N 51°06' E 001°24'3 4.1
2018-Jul-17 01:44N 51°07' E 001°20'0 0.0
2018-Jul-17 01:25N 51°07' E 001°20'0 0.5
2018-Jul-17 01:00N 51°07' E 001°20'816.3
2018-Jul-17 00:30N 51°05' E 001°33'1313.5
2018-Jul-16 23:30N 50°58' E 001°51'0 0.0
2018-Jul-16 23:00N 50°58' E 001°51'0 0.0
2018-Jul-16 22:30N 50°58' E 001°51'510.5
2018-Jul-16 22:01N 50°58' E 001°43'918.1
2018-Jul-16 21:30N 51°03' E 001°30'815.8
2018-Jul-16 21:00N 51°07' E 001°20'0 0.4
2018-Jul-16 20:25N 51°07' E 001°20'0 0.2
2018-Jul-16 20:00N 51°07' E 001°20'714.4
2018-Jul-16 19:30N 51°05' E 001°31'1019.3
2018-Jul-16 19:00N 50°59' E 001°43'510.4
2018-Jul-16 18:30N 50°58' E 001°51'0 0.0
2018-Jul-16 18:00N 50°58' E 001°51'5 9.9
2018-Jul-16 17:31N 50°58' E 001°43'1019.2
2018-Jul-16 17:01N 51°03' E 001°30'815.2
2018-Jul-16 16:30N 51°07' E 001°20'0 0.4
2018-Jul-16 15:57N 51°07' E 001°20'1 1.3
2018-Jul-16 15:31N 51°07' E 001°21'816.3
2018-Jul-16 15:00N 51°05' E 001°34'918.3
2018-Jul-16 14:30N 50°59' E 001°44'510.0
2018-Jul-16 14:00N 50°58' E 001°52'0 0.0
2018-Jul-16 13:30N 50°58' E 001°52'1 1.5
2018-Jul-16 13:00N 50°58' E 001°51'918.8
2018-Jul-16 12:31N 51°01' E 001°36'1019.4
2018-Jul-16 12:01N 51°06' E 001°23'2 4.5
2018-Jul-16 11:28N 51°07' E 001°20'0 0.3
2018-Jul-16 11:00N 51°07' E 001°20'715.2
2018-Jul-16 10:31N 51°04' E 001°30'1019.6
2018-Jul-16 10:01N 50°58' E 001°43'5 9.5
2018-Jul-16 09:30N 50°58' E 001°51'0 0.0
2018-Jul-16 09:00N 50°58' E 001°51'3 5.4
2018-Jul-16 08:30N 50°58' E 001°47'816.7
2018-Jul-16 08:01N 50°60' E 001°34'918.7
2018-Jul-16 07:30N 51°06' E 001°23'2 3.6
2018-Jul-16 06:53N 51°07' E 001°20'0 0.0
2018-Jul-16 06:28N 51°07' E 001°20'2 3.7
2018-Jul-16 06:01N 51°07' E 001°23'1018.9
2018-Jul-16 05:30N 51°02' E 001°36'918.1
2018-Jul-16 05:00N 50°58' E 001°49'2 3.3
2018-Jul-16 04:31N 50°58' E 001°51'0 0.0
2018-Jul-16 04:00N 50°58' E 001°51'1 1.5
2018-Jul-16 03:30N 50°58' E 001°50'917.2
2018-Jul-16 03:00N 51°00' E 001°37'918.2
2018-Jul-16 02:30N 51°05' E 001°25'4 3.3
2018-Jul-16 01:22N 51°07' E 001°20'0 0.9
2018-Jul-16 01:01N 51°07' E 001°21'917.3
2018-Jul-16 00:30N 51°05' E 001°34'918.9
2018-Jul-16 00:00N 50°59' E 001°45'4 8.5
2018-Jul-15 23:30N 50°58' E 001°51'0 0.0
2018-Jul-15 23:00N 50°58' E 001°51'0 0.0
2018-Jul-15 22:30N 50°58' E 001°51'611.8
2018-Jul-15 22:01N 50°59' E 001°42'816.5
2018-Jul-15 21:30N 51°03' E 001°31'816.0
2018-Jul-15 21:00N 51°07' E 001°20'1 1.2
2018-Jul-15 20:24N 51°07' E 001°20'0 0.7
2018-Jul-15 20:01N 51°07' E 001°20'815.1
2018-Jul-15 19:30N 51°04' E 001°31'1020.0
2018-Jul-15 19:01N 50°58' E 001°44'4 8.4
2018-Jul-15 18:30N 50°58' E 001°51'0 0.0
2018-Jul-15 18:00N 50°58' E 001°51'714.4
2018-Jul-15 17:30N 50°59' E 001°40'1019.6
2018-Jul-15 17:00N 51°05' E 001°27'5 6.7
2018-Jul-15 16:15N 51°07' E 001°20'0 0.8
2018-Jul-15 16:00N 51°07' E 001°20'815.7
2018-Jul-15 15:31N 51°05' E 001°32'918.7
2018-Jul-15 15:00N 50°59' E 001°44'510.3
2018-Jul-15 14:30N 50°58' E 001°52'0 0.0
2018-Jul-15 14:00N 50°58' E 001°52'0 0.9
2018-Jul-15 13:30N 50°58' E 001°51'918.7
2018-Jul-15 13:00N 50°60' E 001°36'1019.4
2018-Jul-15 12:30N 51°06' E 001°24'3 6.0
2018-Jul-15 11:59N 51°07' E 001°20'0 0.8
2018-Jul-15 11:31N 51°07' E 001°21'918.9
2018-Jul-15 11:01N 51°04' E 001°35'918.9
2018-Jul-15 10:30N 50°58' E 001°46'3 5.9
2018-Jul-15 10:00N 50°58' E 001°51'0 0.0
2018-Jul-15 09:30N 50°58' E 001°51'0 0.4
2018-Jul-15 09:00N 50°58' E 001°51'611.7
2018-Jul-15 08:30N 50°58' E 001°42'918.3
2018-Jul-15 08:00N 51°03' E 001°29'713.9
2018-Jul-15 07:30N 51°07' E 001°20'0 0.0
2018-Jul-15 07:00N 51°07' E 001°20'0 0.0
2018-Jul-15 06:30N 51°07' E 001°20'0 0.0
2018-Jul-15 06:00N 51°07' E 001°20'3 7.0
2018-Jul-15 05:30N 51°06' E 001°25'919.0
2018-Jul-15 05:00N 51°01' E 001°37'917.6
2018-Jul-15 04:30N 50°58' E 001°51'0 0.4
2018-Jul-15 04:00N 50°58' E 001°51'0 0.7
2018-Jul-15 03:30N 50°58' E 001°51'917.1
2018-Jul-15 03:01N 51°00' E 001°37'1018.9
2018-Jul-15 02:30N 51°05' E 001°25'4 6.8
2018-Jul-15 01:59N 51°07' E 001°20'0 0.0
2018-Jul-15 01:30N 51°07' E 001°20'1 2.8
2018-Jul-15 01:00N 51°07' E 001°22'917.4
2018-Jul-15 00:30N 51°03' E 001°34'917.2
2018-Jul-15 00:01N 50°58' E 001°45'4 7.8
2018-Jul-14 23:30N 50°58' E 001°52'0 0.0
2018-Jul-14 23:00N 50°58' E 001°52'0 0.0
2018-Jul-14 22:30N 50°58' E 001°52'4 7.0
2018-Jul-14 22:00N 50°58' E 001°46'917.9
2018-Jul-14 21:30N 51°02' E 001°34'918.2
2018-Jul-14 21:00N 51°07' E 001°21'1 1.7
2018-Jul-14 20:30N 51°07' E 001°20'0 0.3
2018-Jul-14 20:00N 51°07' E 001°20'713.7
2018-Jul-14 19:30N 51°04' E 001°30'917.3
2018-Jul-14 19:01N 50°60' E 001°41'612.2
2018-Jul-14 18:30N 50°58' E 001°51'0 0.0
2018-Jul-14 18:01N 50°58' E 001°51'612.1
2018-Jul-14 17:30N 50°58' E 001°41'918.6
2018-Jul-14 17:00N 51°03' E 001°29'713.3
2018-Jul-14 16:29N 51°07' E 001°20'0 0.0
2018-Jul-14 15:58N 51°07' E 001°20'3 5.9
2018-Jul-14 15:31N 51°07' E 001°24'918.6
2018-Jul-14 15:01N 51°02' E 001°37'917.1
2018-Jul-14 14:31N 50°58' E 001°49'1 1.0
2018-Jul-14 13:29N 50°58' E 001°51'713.9
2018-Jul-14 13:00N 50°59' E 001°41'1019.1
2018-Jul-14 12:30N 51°04' E 001°28'611.1
2018-Jul-14 11:57N 51°07' E 001°20'0 0.0
2018-Jul-14 11:24N 51°07' E 001°20'1 2.5
2018-Jul-14 11:00N 51°07' E 001°22'918.6
2018-Jul-14 10:30N 51°03' E 001°34'918.6
2018-Jul-14 10:00N 50°58' E 001°47'2 4.7
2018-Jul-14 09:30N 50°58' E 001°51'0 0.0
2018-Jul-14 09:01N 50°58' E 001°51'5 9.1
2018-Jul-14 08:30N 50°58' E 001°44'917.7
2018-Jul-14 08:00N 51°02' E 001°31'9 8.8
2018-Jul-14 07:00N 51°07' E 001°20'0 0.0
2018-Jul-14 06:30N 51°07' E 001°20'0 0.3
2018-Jul-14 06:00N 51°07' E 001°20'816.8
2018-Jul-14 05:30N 51°03' E 001°32'1019.8
2018-Jul-14 05:01N 50°58' E 001°45'4 6.7
2018-Jul-14 04:27N 50°58' E 001°51'0 0.0
2018-Jul-14 04:00N 50°58' E 001°51'0 1.0
2018-Jul-14 03:30N 50°58' E 001°50'816.7
2018-Jul-14 03:00N 50°60' E 001°37'918.4
2018-Jul-14 02:30N 51°06' E 001°26'4 8.1
2018-Jul-14 02:00N 51°07' E 001°20'0 0.0
2018-Jul-14 01:19N 51°07' E 001°20'1 3.1
2018-Jul-14 01:01N 51°07' E 001°22'816.8
2018-Jul-14 00:30N 51°04' E 001°34'917.5
2018-Jul-14 00:00N 50°59' E 001°45'4 8.8
2018-Jul-13 23:30N 50°58' E 001°52'0 0.0
2018-Jul-13 23:00N 50°58' E 001°52'0 0.0
2018-Jul-13 22:29N 50°58' E 001°52'715.0
2018-Jul-13 22:00N 50°59' E 001°40'919.0
2018-Jul-13 21:31N 51°03' E 001°27'611.5
2018-Jul-13 20:58N 51°07' E 001°20'0 0.0
2018-Jul-13 20:26N 51°07' E 001°20'0 1.1
2018-Jul-13 20:00N 51°07' E 001°21'816.9
2018-Jul-13 19:31N 51°03' E 001°32'816.7
2018-Jul-13 19:00N 50°59' E 001°44'5 8.8
2018-Jul-13 18:29N 50°58' E 001°51'0 0.0
2018-Jul-13 17:59N 50°58' E 001°51'511.0
2018-Jul-13 17:30N 50°58' E 001°43'917.6
2018-Jul-13 17:00N 51°02' E 001°31'816.6
2018-Jul-13 16:30N 51°07' E 001°20'0 0.5
2018-Jul-13 15:40N 51°07' E 001°20'0 1.2
2018-Jul-13 15:31N 51°07' E 001°20'917.7
2018-Jul-13 15:00N 51°04' E 001°34'918.8
2018-Jul-13 14:30N 50°58' E 001°45'4 3.5
2018-Jul-13 13:26N 50°58' E 001°51'614.1
2018-Jul-13 13:00N 50°59' E 001°41'1019.5
2018-Jul-13 12:30N 51°04' E 001°28'611.3
2018-Jul-13 11:57N 51°07' E 001°20'0 0.0
2018-Jul-13 11:28N 51°07' E 001°20'0 0.3
2018-Jul-13 11:00N 51°07' E 001°20'815.1
2018-Jul-13 10:30N 51°05' E 001°32'918.4
2018-Jul-13 10:00N 50°59' E 001°43'5 9.4
2018-Jul-13 09:28N 50°58' E 001°51'0 0.0
2018-Jul-13 08:54N 50°58' E 001°51'3 8.2
2018-Jul-13 08:30N 50°58' E 001°46'917.9
2018-Jul-13 08:00N 51°02' E 001°33'918.4
2018-Jul-13 07:30N 51°07' E 001°21'1 1.4
2018-Jul-13 06:57N 51°07' E 001°20'0 0.0
2018-Jul-13 06:12N 51°07' E 001°20'1 4.7
2018-Jul-13 06:01N 51°07' E 001°22'1019.2
2018-Jul-13 05:31N 51°02' E 001°35'1019.1
2018-Jul-13 05:01N 50°58' E 001°49'2 3.1
2018-Jul-13 04:30N 50°58' E 001°51'0 0.0
2018-Jul-13 04:00N 50°58' E 001°51'2 3.5
2018-Jul-13 03:30N 50°58' E 001°48'816.6
2018-Jul-13 03:00N 50°60' E 001°35'918.3
2018-Jul-13 02:30N 51°06' E 001°24'3 6.0
2018-Jul-13 02:00N 51°07' E 001°20'0 0.0
2018-Jul-13 01:26N 51°07' E 001°20'0 0.8
2018-Jul-13 00:59N 51°07' E 001°20'817.0
2018-Jul-13 00:30N 51°04' E 001°32'918.5
2018-Jul-13 00:01N 50°59' E 001°44'4 7.9
2018-Jul-12 23:27N 50°58' E 001°51'0 0.0
2018-Jul-12 22:54N 50°58' E 001°51'4 9.3
2018-Jul-12 22:29N 50°58' E 001°45'919.7
2018-Jul-12 22:00N 51°02' E 001°32'917.3
2018-Jul-12 21:30N 51°07' E 001°20'0 0.1
2018-Jul-12 20:51N 51°07' E 001°20'0 0.6
2018-Jul-12 20:29N 51°07' E 001°20'817.2
2018-Jul-12 20:00N 51°04' E 001°32'1019.5
2018-Jul-12 19:31N 50°58' E 001°45'4 7.7
2018-Jul-12 19:00N 50°58' E 001°51'0 0.0
2018-Jul-12 18:30N 50°58' E 001°51'3 5.4
2018-Jul-12 17:59N 50°58' E 001°47'816.6
2018-Jul-12 17:30N 50°60' E 001°34'918.7
2018-Jul-12 17:00N 51°06' E 001°23'2 3.8
2018-Jul-12 16:23N 51°07' E 001°20'0 0.1
2018-Jul-12 15:57N 51°07' E 001°20'511.7
2018-Jul-12 15:30N 51°05' E 001°28'918.6
2018-Jul-12 15:00N 50°60' E 001°39'714.6
2018-Jul-12 14:30N 50°58' E 001°51'0 0.0
2018-Jul-12 14:00N 50°58' E 001°51'1 1.8
2018-Jul-12 13:30N 50°58' E 001°50'917.8
2018-Jul-12 13:00N 51°01' E 001°36'919.2
2018-Jul-12 12:30N 51°06' E 001°23'2 1.7
2018-Jul-12 11:15N 51°07' E 001°20'0 0.9
2018-Jul-12 10:59N 51°07' E 001°20'715.5
2018-Jul-12 10:31N 51°04' E 001°31'918.3
2018-Jul-12 10:01N 50°59' E 001°43'5 6.7
2018-Jul-12 09:14N 50°58' E 001°51'0 0.0
2018-Jul-12 08:53N 50°58' E 001°51'1 2.2
2018-Jul-12 08:31N 50°58' E 001°50'918.5
2018-Jul-12 08:00N 50°60' E 001°35'918.7
2018-Jul-12 07:30N 51°05' E 001°23'3 2.4
2018-Jul-12 06:13N 51°07' E 001°20'1 5.1
2018-Jul-12 06:00N 51°07' E 001°22'919.2
2018-Jul-12 05:31N 51°02' E 001°35'918.9
2018-Jul-12 05:00N 50°58' E 001°48'2 3.3
2018-Jul-12 04:30N 50°58' E 001°51'0 0.0
2018-Jul-12 04:00N 50°58' E 001°51'1 1.4
2018-Jul-12 03:31N 50°58' E 001°50'  

Dump ship's entire track history